Time;durP1;ratioP1;P1;durP2;ratioP2;P2;SDS_P1;SDS_P2;PMS_P1;PMS_P2;Temp;Humidity;BMP_temperature;BMP_pressure;BME280_temperature;BME280_humidity;BME280_pressure;Samples;Min_cycle;Max_cycle;Signal;HPM_P1;HPM_P2
2021/07/16 10:00:24;;;;;;;15.52;7.18;;;25.50;90.00;;;;;;5061028;28;20078;-80
2021/07/16 10:02:53;;;;;;;18.80;7.90;;;25.40;90.30;;;;;;5045772;28;20514;-80
2021/07/16 10:05:18;;;;;;;18.10;11.15;;;25.60;89.70;;;;;;5027991;28;20037;-81
2021/07/16 10:07:44;;;;;;;12.95;8.85;;;25.80;86.70;;;;;;5046062;28;20046;-81
2021/07/16 10:10:12;;;;;;;18.08;9.27;;;25.90;86.30;;;;;;5039815;28;20036;-82
2021/07/16 10:12:43;;;;;;;16.75;10.30;;;25.90;86.50;;;;;;5030912;28;20024;-81
2021/07/16 10:15:13;;;;;;;24.13;10.23;;;25.90;86.60;;;;;;5047388;28;20028;-80
2021/07/16 10:17:38;;;;;;;15.50;10.88;;;26.00;87.90;;;;;;5034769;28;20407;-81
2021/07/16 10:20:12;;;;;;;14.55;8.65;;;26.20;87.80;;;;;;5060218;28;20031;-80
2021/07/16 10:22:38;;;;;;;18.17;8.48;;;26.30;87.90;;;;;;5033365;28;20039;-81
2021/07/16 10:25:04;;;;;;;23.23;8.52;;;26.60;84.10;;;;;;5043039;28;20122;-80
2021/07/16 10:27:30;;;;;;;20.65;8.30;;;26.60;84.40;;;;;;5029645;28;20451;-80
2021/07/16 10:30:06;;;;;;;20.35;8.48;;;26.80;84.00;;;;;;5028021;28;20028;-81
2021/07/16 10:32:46;;;;;;;22.33;7.45;;;27.00;84.90;;;;;;5025041;28;20111;-81
2021/07/16 10:35:20;;;;;;;17.25;7.50;;;27.30;84.40;;;;;;5040593;28;20034;-80
2021/07/16 10:37:46;;;;;;;11.57;7.20;;;27.30;84.50;;;;;;5074810;28;20032;-81
2021/07/16 10:40:37;;;;;;;14.88;6.97;;;27.50;83.50;;;;;;5025608;28;20051;-82
2021/07/16 10:43:05;;;;;;;19.52;7.10;;;27.60;83.50;;;;;;5039138;28;20429;-82
2021/07/16 10:45:31;;;;;;;15.48;7.05;;;27.90;81.70;;;;;;5035719;28;20032;-82
2021/07/16 10:48:12;;;;;;;10.93;5.78;;;28.00;81.30;;;;;;5060778;28;20028;-81
2021/07/16 10:50:38;;;;;;;12.85;6.15;;;28.10;81.90;;;;;;5031425;28;20024;-81
2021/07/16 10:53:04;;;;;;;19.30;8.10;;;28.30;82.00;;;;;;5045900;28;20396;-81
2021/07/16 10:55:32;;;;;;;14.55;7.53;;;28.60;80.40;;;;;;5044981;28;20031;-81
2021/07/16 10:57:58;;;;;;;16.75;7.85;;;28.80;79.30;;;;;;5072486;28;20119;-80
2021/07/16 11:00:36;;;;;;;17.20;7.15;;;29.00;77.70;;;;;;5041671;28;20120;-81
2021/07/16 11:03:11;;;;;;;12.90;7.35;;;29.20;78.90;;;;;;5060079;28;20119;-80
2021/07/16 11:05:42;;;;;;;12.95;5.88;;;29.40;79.10;;;;;;5051662;28;20366;-80
2021/07/16 11:08:23;;;;;;;9.48;6.15;;;29.50;78.00;;;;;;5074250;28;20036;-80
2021/07/16 11:10:54;;;;;;;13.80;7.38;;;29.50;77.90;;;;;;5035523;28;20450;-79
2021/07/16 11:13:42;;;;;;;10.25;6.60;;;29.70;77.10;;;;;;5049609;28;20119;-80
2021/07/16 11:16:29;;;;;;;13.45;6.65;;;30.00;76.80;;;;;;5031368;28;20067;-78
2021/07/16 11:19:03;;;;;;;13.10;7.95;;;30.10;76.40;;;;;;5071216;28;20028;-79
2021/07/16 11:21:47;;;;;;;10.82;7.97;;;30.50;72.50;;;;;;5072326;28;20036;-78
2021/07/16 11:24:18;;;;;;;11.43;8.23;;;30.50;70.70;;;;;;5068696;28;20068;-79
2021/07/16 11:27:07;;;;;;;14.95;8.15;;;30.10;70.20;;;;;;5069747;28;20400;-79
2021/07/16 11:29:39;;;;;;;12.77;7.85;;;30.20;72.00;;;;;;5063462;28;20064;-79
2021/07/16 11:32:25;;;;;;;9.13;5.85;;;30.30;70.30;;;;;;5043665;28;20394;-77
2021/07/16 11:34:58;;;;;;;12.82;6.05;;;30.20;71.00;;;;;;5046101;28;20492;-79
2021/07/16 11:37:30;;;;;;;12.27;5.28;;;30.10;69.90;;;;;;5030148;28;20138;-79
2021/07/16 11:40:26;;;;;;;13.95;5.60;;;30.20;70.20;;;;;;5050290;28;20306;-77
2021/07/16 11:42:53;;;;;;;22.80;5.88;;;30.10;71.60;;;;;;5056867;28;20214;-78
2021/07/16 11:45:30;;;;;;;8.20;4.43;;;30.30;67.70;;;;;;5042458;28;20380;-78
2021/07/16 11:47:56;;;;;;;12.80;4.93;;;30.40;70.20;;;;;;5030675;28;20550;-78
2021/07/16 11:50:21;;;;;;;15.90;5.68;;;30.30;71.00;;;;;;5058377;28;20105;-77
2021/07/16 11:52:48;;;;;;;19.08;5.70;;;30.50;69.80;;;;;;5045082;28;20514;-77
2021/07/16 11:55:18;;;;;;;18.40;5.45;;;30.70;66.60;;;;;;5047968;28;20055;-77
2021/07/16 11:57:47;;;;;;;10.85;4.78;;;30.60;66.10;;;;;;5029498;28;20523;-77
2021/07/16 12:00:13;;;;;;;12.10;4.55;;;30.50;67.90;;;;;;5077306;28;20104;-78
2021/07/16 12:02:39;;;;;;;10.88;4.43;;;30.50;68.40;;;;;;5027048;28;20041;-78
2021/07/16 12:05:05;;;;;;;11.77;5.05;;;30.10;68.80;;;;;;5039788;28;20035;-77
2021/07/16 12:07:40;;;;;;;11.57;5.05;;;29.90;68.80;;;;;;5039026;28;20088;-78
2021/07/16 12:10:15;;;;;;;16.85;5.15;;;29.80;68.30;;;;;;5042573;28;20028;-77
2021/07/16 12:12:41;;;;;;;13.52;5.03;;;29.60;66.00;;;;;;5027001;28;20036;-78
2021/07/16 12:15:11;;;;;;;7.20;4.07;;;29.30;67.20;;;;;;5048077;28;20036;-77
2021/07/16 12:17:41;;;;;;;20.33;6.43;;;29.10;68.40;;;;;;5027319;28;20051;-78
2021/07/16 12:20:09;;;;;;;15.63;5.15;;;29.10;68.00;;;;;;5048530;28;20081;-77
2021/07/16 12:22:35;;;;;;;13.18;6.05;;;29.00;68.90;;;;;;5044440;28;20032;-77
2021/07/16 12:25:01;;;;;;;17.00;5.32;;;29.10;66.90;;;;;;5040859;28;20032;-77
2021/07/16 12:27:27;;;;;;;19.30;6.07;;;29.00;67.10;;;;;;5023803;28;20036;-77
2021/07/16 12:30:01;;;;;;;8.93;5.30;;;28.90;69.90;;;;;;5034576;28;20507;-77
2021/07/16 12:32:37;;;;;;;16.85;6.07;;;29.00;70.50;;;;;;5049782;28;20035;-77
2021/07/16 12:35:16;;;;;;;14.38;5.90;;;29.10;69.00;;;;;;5043520;28;20033;-77
2021/07/16 12:37:42;;;;;;;18.60;6.07;;;29.20;69.30;;;;;;5036180;28;20031;-77
2021/07/16 12:40:08;;;;;;;20.17;5.78;;;29.30;69.10;;;;;;5042343;28;20033;-77
2021/07/16 12:42:35;;;;;;;14.93;5.20;;;29.40;68.90;;;;;;5048214;28;20491;-77
2021/07/16 12:45:11;;;;;;;14.80;5.10;;;29.40;68.70;;;;;;5070797;28;20039;-77
2021/07/16 12:47:53;;;;;;;17.80;5.07;;;29.30;69.20;;;;;;5048446;28;20032;-77
2021/07/16 12:50:20;;;;;;;15.18;5.38;;;29.50;67.90;;;;;;5045172;28;20093;-77
2021/07/16 12:52:56;;;;;;;15.25;4.93;;;29.70;68.50;;;;;;5051688;28;20043;-77
2021/07/16 12:55:22;;;;;;;21.05;5.47;;;29.70;68.70;;;;;;5044709;28;20061;-77
2021/07/16 12:57:48;;;;;;;19.75;4.95;;;29.80;67.80;;;;;;5027346;28;20056;-77
2021/07/16 13:00:19;;;;;;;17.65;5.65;;;29.90;67.20;;;;;;5054516;28;20067;-77
2021/07/16 13:02:47;;;;;;;18.55;4.90;;;29.90;67.20;;;;;;5045644;28;20021;-77
2021/07/16 13:05:12;;;;;;;13.13;3.95;;;29.80;68.30;;;;;;5030970;28;20314;-77
2021/07/16 13:07:38;;;;;;;19.08;4.75;;;29.90;68.10;;;;;;5049087;28;20060;-76
2021/07/16 13:10:21;;;;;;;17.90;5.05;;;29.90;67.60;;;;;;5044874;28;20032;-77
2021/07/16 13:12:46;;;;;;;13.25;4.47;;;29.70;67.60;;;;;;5049790;28;20044;-77
2021/07/16 13:15:12;;;;;;;26.77;6.30;;;29.70;67.10;;;;;;5052254;28;20036;-77
2021/07/16 13:17:38;;;;;;;25.55;4.75;;;29.50;66.50;;;;;;5027146;28;20024;-77
2021/07/16 13:20:06;;;;;;;16.50;4.95;;;29.50;67.80;;;;;;5030036;28;20039;-77
2021/07/16 13:22:42;;;;;;;15.98;5.03;;;29.20;68.30;;;;;;5064928;28;20518;-76
2021/07/16 13:25:09;;;;;;;17.60;4.70;;;29.30;67.90;;;;;;5055944;28;20109;-76
2021/07/16 13:27:35;;;;;;;17.05;4.22;;;29.50;67.70;;;;;;5049231;28;20145;-76
2021/07/16 13:30:01;;;;;;;15.20;4.85;;;29.70;66.90;;;;;;5046004;28;20553;-77
2021/07/16 13:32:26;;;;;;;18.45;4.60;;;30.00;66.70;;;;;;5062258;28;20036;-76
2021/07/16 13:34:52;;;;;;;14.40;4.65;;;30.10;67.10;;;;;;5055458;28;20482;-76
2021/07/16 13:37:18;;;;;;;16.40;5.30;;;30.30;66.50;;;;;;5044843;28;20391;-76
2021/07/16 13:39:44;;;;;;;19.15;5.43;;;30.50;66.00;;;;;;5040157;28;20037;-76
2021/07/16 13:42:09;;;;;;;19.40;5.78;;;30.60;65.50;;;;;;5043758;28;20025;-76
2021/07/16 13:44:35;;;;;;;17.25;5.93;;;30.70;62.20;;;;;;5047901;28;20039;-76
2021/07/16 13:47:00;;;;;;;19.05;6.32;;;30.80;62.50;;;;;;5060553;28;20526;-76
2021/07/16 13:49:26;;;;;;;10.20;4.80;;;30.80;62.00;;;;;;5030302;28;20032;-76
2021/07/16 13:51:52;;;;;;;15.10;4.75;;;30.70;64.10;;;;;;5033271;28;20115;-77
2021/07/16 13:54:18;;;;;;;21.50;5.95;;;30.70;64.10;;;;;;5039991;28;20569;-77
2021/07/16 13:56:44;;;;;;;12.82;4.82;;;30.30;64.00;;;;;;5049354;28;20029;-76
2021/07/16 13:59:09;;;;;;;15.38;5.80;;;30.50;61.70;;;;;;5058682;28;20472;-76
2021/07/16 14:01:35;;;;;;;15.38;5.90;;;30.40;61.80;;;;;;5061478;28;20030;-76
2021/07/16 14:04:00;;;;;;;13.75;5.07;;;30.30;63.50;;;;;;5045413;28;20043;-77
2021/07/16 14:06:26;;;;;;;26.00;4.20;;;30.50;62.60;;;;;;5063639;28;20434;-77
2021/07/16 14:08:51;;;;;;;11.35;4.75;;;30.60;64.10;;;;;;5060827;28;20476;-75
2021/07/16 14:11:17;;;;;;;14.52;4.63;;;30.80;63.60;;;;;;5060040;28;20043;-75
2021/07/16 14:13:42;;;;;;;17.30;5.18;;;30.90;62.90;;;;;;5047127;28;20119;-75
2021/07/16 14:16:08;;;;;;;15.20;3.85;;;31.00;63.70;;;;;;5045257;28;20394;-75
2021/07/16 14:18:34;;;;;;;9.13;4.45;;;31.30;60.70;;;;;;5050708;28;20787;-75
2021/07/16 14:20:59;;;;;;;14.30;4.88;;;31.40;60.80;;;;;;5043220;28;20484;-75
2021/07/16 14:23:25;;;;;;;15.05;5.40;;;31.40;59.90;;;;;;5024346;28;20154;-78
2021/07/16 14:25:54;;;;;;;13.13;4.35;;;31.60;59.30;;;;;;5060564;28;20024;-76
2021/07/16 14:28:19;;;;;;;14.98;5.40;;;31.60;59.80;;;;;;5048239;28;20033;-76
2021/07/16 14:30:48;;;;;;;15.18;6.07;;;31.60;59.20;;;;;;5047962;28;20032;-76
2021/07/16 14:33:14;;;;;;;16.58;4.95;;;31.70;58.40;;;;;;5043075;28;20032;-75
2021/07/16 14:35:40;;;;;;;19.70;5.80;;;31.60;59.90;;;;;;5043039;28;20038;-76
2021/07/16 14:38:07;;;;;;;11.85;4.25;;;31.60;60.00;;;;;;5031835;28;20033;-76
2021/07/16 14:40:32;;;;;;;17.85;5.40;;;31.60;59.50;;;;;;5060027;28;20017;-75
2021/07/16 14:42:58;;;;;;;12.07;4.50;;;31.40;59.30;;;;;;5058856;28;20387;-76
2021/07/16 14:45:26;;;;;;;18.63;9.85;;;31.30;59.90;;;;;;5061939;28;20040;-75
2021/07/16 14:47:52;;;;;;;11.77;4.32;;;31.30;60.20;;;;;;5071041;28;20036;-76
2021/07/16 14:50:18;;;;;;;8.77;3.72;;;31.10;61.10;;;;;;5046514;28;20623;-77
2021/07/16 14:52:46;;;;;;;12.30;4.93;;;31.10;61.40;;;;;;5048468;28;20086;-75
2021/07/16 14:55:13;;;;;;;18.77;5.38;;;31.10;60.60;;;;;;5034687;28;20589;-76
2021/07/16 14:57:38;;;;;;;17.50;4.72;;;31.10;59.60;;;;;;5030156;28;20047;-76
2021/07/16 15:00:05;;;;;;;11.90;4.28;;;31.10;59.70;;;;;;5043155;28;20388;-76
2021/07/16 15:02:30;;;;;;;15.73;5.07;;;31.00;60.10;;;;;;5028912;28;20085;-76
2021/07/16 15:04:56;;;;;;;15.02;4.30;;;31.00;58.60;;;;;;5038605;28;20040;-77
2021/07/16 15:07:21;;;;;;;17.08;4.97;;;30.90;58.80;;;;;;5070720;28;20481;-76
2021/07/16 15:09:47;;;;;;;17.52;4.45;;;30.80;59.60;;;;;;5044960;28;20051;-75
2021/07/16 15:12:12;;;;;;;13.10;5.05;;;30.70;59.90;;;;;;5055104;28;20031;-76
2021/07/16 15:14:38;;;;;;;9.98;4.53;;;30.70;60.20;;;;;;5044360;28;20024;-77
2021/07/16 15:17:03;;;;;;;11.20;4.43;;;30.50;59.90;;;;;;5027803;28;20036;-76
2021/07/16 15:19:30;;;;;;;13.10;4.47;;;30.40;61.30;;;;;;5030690;28;20036;-76
2021/07/16 15:21:55;;;;;;;12.45;4.90;;;30.40;61.60;;;;;;5021400;28;20035;-76
2021/07/16 15:24:21;;;;;;;12.02;3.67;;;30.50;61.10;;;;;;5042666;28;20395;-76
2021/07/16 15:26:46;;;;;;;12.00;4.72;;;30.50;61.00;;;;;;5044930;28;20119;-76
2021/07/16 15:29:12;;;;;;;9.25;4.00;;;30.60;60.50;;;;;;5036077;28;20037;-77
2021/07/16 15:31:38;;;;;;;11.00;4.40;;;30.70;61.20;;;;;;5049020;28;20035;-75
2021/07/16 15:34:03;;;;;;;8.65;3.90;;;30.70;60.10;;;;;;5039715;28;20297;-81
2021/07/16 15:36:29;;;;;;;10.88;4.13;;;30.80;60.90;;;;;;5027278;28;20043;-82
2021/07/16 15:38:55;;;;;;;10.18;4.20;;;30.70;61.10;;;;;;5022656;28;20112;-81
2021/07/16 15:41:22;;;;;;;15.50;5.93;;;30.80;60.50;;;;;;5037807;28;20047;-82
2021/07/16 15:43:47;;;;;;;16.17;5.53;;;30.60;60.70;;;;;;5058256;28;20131;-79
2021/07/16 15:46:13;;;;;;;13.45;4.30;;;30.50;60.70;;;;;;5071413;28;20392;-80
2021/07/16 15:48:38;;;;;;;12.25;4.35;;;30.50;60.70;;;;;;5058663;28;20029;-81
2021/07/16 15:51:04;;;;;;;14.15;4.85;;;30.30;60.60;;;;;;5042301;28;20027;-81
2021/07/16 15:53:30;;;;;;;11.52;4.45;;;30.20;61.10;;;;;;5027212;28;20261;-81
2021/07/16 15:55:56;;;;;;;13.45;4.20;;;30.10;61.10;;;;;;5031410;28;20032;-81
2021/07/16 15:58:23;;;;;;;12.52;4.85;;;30.00;61.20;;;;;;5040232;28;20040;-80
2021/07/16 16:00:48;;;;;;;12.77;4.97;;;29.90;61.20;;;;;;5046499;28;20487;-80
2021/07/16 16:03:14;;;;;;;13.05;5.22;;;29.90;62.00;;;;;;5054552;28;20052;-81
2021/07/16 16:05:39;;;;;;;21.00;5.18;;;29.90;61.80;;;;;;5047430;28;20032;-80
2021/07/16 16:08:06;;;;;;;11.98;5.60;;;29.80;61.70;;;;;;5057277;28;20078;-80
2021/07/16 16:10:31;;;;;;;14.35;4.75;;;29.70;61.80;;;;;;5051589;28;20452;-80
2021/07/16 16:12:57;;;;;;;13.82;5.18;;;29.60;61.90;;;;;;5045162;28;20124;-81
2021/07/16 16:15:22;;;;;;;19.30;5.65;;;29.60;62.70;;;;;;5059050;28;20448;-81
2021/07/16 16:17:48;;;;;;;17.10;7.43;;;29.40;60.40;;;;;;5038533;28;20039;-81
2021/07/16 16:20:13;;;;;;;17.70;8.48;;;29.20;60.60;;;;;;5039779;28;20038;-81
2021/07/16 16:22:39;;;;;;;13.05;5.90;;;29.10;60.60;;;;;;5058019;28;20108;-81
2021/07/16 16:25:06;;;;;;;17.23;6.47;;;28.90;61.80;;;;;;5046021;28;20040;-81
2021/07/16 16:27:31;;;;;;;11.55;4.95;;;28.90;62.50;;;;;;5049426;28;20024;-80
2021/07/16 16:29:57;;;;;;;12.50;4.82;;;28.80;62.40;;;;;;5055587;28;20279;-82
2021/07/16 16:32:22;;;;;;;9.77;4.50;;;28.60;63.30;;;;;;5046153;28;20062;-81
2021/07/16 16:34:48;;;;;;;14.65;5.22;;;28.50;63.40;;;;;;5063015;28;20502;-81
2021/07/16 16:37:13;;;;;;;14.13;5.78;;;28.50;63.50;;;;;;5056726;28;20043;-82
2021/07/16 16:39:39;;;;;;;13.85;6.22;;;28.40;64.00;;;;;;5050340;28;20035;-82
2021/07/16 16:42:04;;;;;;;14.27;5.97;;;28.40;63.40;;;;;;5053142;28;20033;-82
2021/07/16 16:44:30;;;;;;;18.00;6.88;;;28.30;63.90;;;;;;5046011;28;20141;-82
2021/07/16 16:46:55;;;;;;;14.07;5.95;;;28.30;64.10;;;;;;5045029;28;20024;-82
2021/07/16 16:49:21;;;;;;;16.92;6.88;;;28.20;64.20;;;;;;5047245;28;20333;-79
2021/07/16 16:51:47;;;;;;;17.83;6.95;;;28.10;64.20;;;;;;5039645;28;20068;-80
2021/07/16 16:54:12;;;;;;;15.75;7.30;;;28.00;64.40;;;;;;5050211;28;20085;-83
2021/07/16 16:56:38;;;;;;;14.25;7.47;;;27.90;64.50;;;;;;5049830;28;20266;-82
2021/07/16 16:59:03;;;;;;;16.83;7.00;;;27.80;64.70;;;;;;5026632;28;20549;-83
2021/07/16 17:01:29;;;;;;;16.35;8.27;;;27.70;65.10;;;;;;5031941;28;20029;-80
2021/07/16 17:03:55;;;;;;;18.67;8.25;;;27.60;65.00;;;;;;5039728;28;20365;-83
2021/07/16 17:06:22;;;;;;;19.48;7.10;;;27.60;64.40;;;;;;5018488;28;20048;-83
2021/07/16 17:08:47;;;;;;;14.38;7.18;;;27.40;64.40;;;;;;5032366;28;20419;-83
2021/07/16 17:11:13;;;;;;;13.18;6.38;;;27.30;65.30;;;;;;5048550;28;20033;-82
2021/07/16 17:13:38;;;;;;;19.48;7.72;;;27.20;65.40;;;;;;5029453;28;20043;-82
2021/07/16 17:16:04;;;;;;;15.60;6.38;;;27.20;65.80;;;;;;5061901;28;20122;-82
2021/07/16 17:18:30;;;;;;;18.20;6.50;;;27.20;66.40;;;;;;5048293;28;20029;-81
2021/07/16 17:20:55;;;;;;;21.38;6.97;;;27.10;66.50;;;;;;5032530;28;20048;-80
2021/07/16 17:23:21;;;;;;;18.33;7.90;;;27.10;66.90;;;;;;5041491;28;20033;-82
2021/07/16 17:25:46;;;;;;;16.13;8.55;;;27.00;67.20;;;;;;5042851;28;20033;-82
2021/07/16 17:28:12;;;;;;;10.77;6.70;;;26.90;66.40;;;;;;5031845;28;20115;-82
2021/07/16 17:30:38;;;;;;;18.02;6.63;;;27.00;67.00;;;;;;5031796;28;20126;-82
2021/07/16 17:33:03;;;;;;;14.05;6.68;;;26.90;66.80;;;;;;5048564;28;20037;-81
2021/07/16 17:35:29;;;;;;;18.63;6.47;;;26.90;67.10;;;;;;5013679;28;20031;-82
2021/07/16 17:37:54;;;;;;;14.60;6.57;;;26.80;66.90;;;;;;5039884;28;20039;-81
2021/07/16 17:40:28;;;;;;;25.25;6.97;;;26.70;66.90;;;;;;5032711;28;20025;-81
2021/07/16 17:42:54;;;;;;;19.60;7.18;;;26.50;66.70;;;;;;5046459;28;20086;-81
2021/07/16 17:45:24;;;;;;;18.98;7.07;;;26.40;67.20;;;;;;5045953;28;20040;-82
2021/07/16 17:47:50;;;;;;;15.30;6.32;;;26.30;67.10;;;;;;5015506;28;20025;-81
2021/07/16 17:50:17;;;;;;;22.20;8.32;;;26.20;67.50;;;;;;5048888;28;20055;-81
2021/07/16 17:52:43;;;;;;;23.27;8.48;;;26.00;67.30;;;;;;5013101;28;20025;-81
2021/07/16 17:55:09;;;;;;;15.30;7.18;;;25.90;68.00;;;;;;5029315;28;20499;-81
2021/07/16 17:57:35;;;;;;;15.65;7.15;;;25.70;68.50;;;;;;5017204;28;20033;-80
2021/07/16 18:00:05;;;;;;;16.10;7.28;;;25.70;68.50;;;;;;5059726;28;20036;-79
2021/07/16 18:02:31;;;;;;;16.77;7.40;;;25.60;69.00;;;;;;5033534;28;20437;-80
2021/07/16 18:04:57;;;;;;;18.58;7.93;;;25.50;69.00;;;;;;5048173;28;20096;-81
2021/07/16 18:07:22;;;;;;;19.67;8.05;;;25.40;69.10;;;;;;5049007;28;20528;-80
2021/07/16 18:09:48;;;;;;;16.80;8.55;;;25.30;69.30;;;;;;5047666;28;20048;-81
2021/07/16 18:12:13;;;;;;;21.13;8.20;;;25.30;69.70;;;;;;5054861;28;20155;-80
2021/07/16 18:14:39;;;;;;;15.48;7.88;;;25.10;69.70;;;;;;5031579;28;20506;-80
2021/07/16 18:17:04;;;;;;;15.32;8.15;;;25.00;69.90;;;;;;5034355;28;20098;-81
2021/07/16 18:19:31;;;;;;;14.88;7.47;;;25.00;70.10;;;;;;5052772;28;20108;-80
2021/07/16 18:21:56;;;;;;;24.00;8.70;;;24.90;70.50;;;;;;5033996;28;20465;-80
2021/07/16 18:24:22;;;;;;;23.25;7.72;;;24.80;70.50;;;;;;5019155;28;20112;-79
2021/07/16 18:26:47;;;;;;;19.67;7.22;;;24.60;70.80;;;;;;5049397;28;20037;-80
2021/07/16 18:29:14;;;;;;;14.88;6.35;;;24.50;71.20;;;;;;5062294;28;20038;-80
2021/07/16 18:31:40;;;;;;;22.83;6.70;;;24.50;71.50;;;;;;5049786;28;20483;-80
2021/07/16 18:34:05;;;;;;;21.27;7.80;;;24.30;72.30;;;;;;5051010;28;20116;-80
2021/07/16 18:36:31;;;;;;;22.92;11.27;;;24.30;71.60;;;;;;5037228;28;20492;-80
2021/07/16 18:38:56;;;;;;;17.45;9.10;;;24.20;71.60;;;;;;5021403;28;20025;-80
2021/07/16 18:41:25;;;;;;;23.17;9.43;;;24.10;72.00;;;;;;5049332;28;20028;-80
2021/07/16 18:43:52;;;;;;;16.23;8.43;;;24.10;72.10;;;;;;5049202;28;20035;-80
2021/07/16 18:46:18;;;;;;;15.82;7.68;;;23.90;72.10;;;;;;5033062;28;20024;-80
2021/07/16 18:48:43;;;;;;;21.27;9.30;;;23.90;72.60;;;;;;5034138;28;20037;-80
2021/07/16 18:51:09;;;;;;;22.98;8.80;;;23.80;72.80;;;;;;5034788;28;20059;-80
2021/07/16 18:53:35;;;;;;;21.25;8.80;;;23.70;72.70;;;;;;5019632;28;20131;-80
2021/07/16 18:56:00;;;;;;;17.58;8.68;;;23.60;73.20;;;;;;5031728;28;20039;-80
2021/07/16 18:58:27;;;;;;;22.17;9.10;;;23.50;73.30;;;;;;5034543;28;20071;-80
2021/07/16 19:00:53;;;;;;;22.08;8.23;;;23.40;73.30;;;;;;5034204;28;20119;-79
2021/07/16 19:03:19;;;;;;;28.83;7.82;;;23.30;73.90;;;;;;5012446;28;20108;-80
2021/07/16 19:05:45;;;;;;;23.65;7.00;;;23.30;74.00;;;;;;5026413;28;20029;-80
2021/07/16 19:08:11;;;;;;;13.05;5.60;;;23.20;74.10;;;;;;5047355;28;20028;-80
2021/07/16 19:10:36;;;;;;;24.52;6.75;;;23.10;74.20;;;;;;5054264;28;20060;-79
2021/07/16 19:13:03;;;;;;;11.18;5.00;;;23.10;74.20;;;;;;5026227;28;20037;-80
2021/07/16 19:15:28;;;;;;;17.58;6.82;;;23.10;74.40;;;;;;5041155;28;20033;-79
2021/07/16 19:17:54;;;;;;;14.90;5.70;;;23.00;74.30;;;;;;5049193;28;20048;-80
2021/07/16 19:20:19;;;;;;;15.63;5.28;;;22.90;74.50;;;;;;5047062;28;20029;-80
2021/07/16 19:22:45;;;;;;;21.80;7.78;;;22.90;74.50;;;;;;5016220;28;20037;-80
2021/07/16 19:25:10;;;;;;;10.73;5.80;;;22.80;74.60;;;;;;5033413;28;20085;-80
2021/07/16 19:27:36;;;;;;;9.75;5.57;;;22.80;74.70;;;;;;5032724;28;20080;-80
2021/07/16 19:30:03;;;;;;;27.42;8.02;;;22.70;74.90;;;;;;5049847;28;20109;-80
2021/07/16 19:32:29;;;;;;;15.38;7.03;;;22.60;75.00;;;;;;5034421;28;20035;-79
2021/07/16 19:34:55;;;;;;;11.55;6.85;;;22.60;75.30;;;;;;5050006;28;20021;-80
2021/07/16 19:37:21;;;;;;;13.75;6.53;;;22.60;75.30;;;;;;5035642;28;20261;-79
2021/07/16 19:39:46;;;;;;;13.85;6.30;;;22.50;75.20;;;;;;5032299;28;20028;-80
2021/07/16 19:42:12;;;;;;;18.80;7.38;;;22.40;75.30;;;;;;5061693;28;20048;-80
2021/07/16 19:44:37;;;;;;;22.92;7.00;;;22.30;75.80;;;;;;5036436;28;20519;-80
2021/07/16 19:47:03;;;;;;;24.17;6.55;;;22.20;76.10;;;;;;5046638;28;20032;-81
2021/07/16 19:49:28;;;;;;;20.45;6.82;;;22.10;76.80;;;;;;5036882;28;20033;-81
2021/07/16 19:51:54;;;;;;;19.33;6.43;;;22.00;76.50;;;;;;5057827;28;20028;-82
2021/07/16 19:54:22;;;;;;;13.90;5.95;;;22.00;77.10;;;;;;5036048;28;20041;-81
2021/07/16 19:56:47;;;;;;;23.30;7.50;;;21.90;77.00;;;;;;5015673;28;20037;-81
2021/07/16 19:59:13;;;;;;;14.45;6.35;;;21.90;77.50;;;;;;5055200;28;20557;-84
2021/07/16 20:01:38;;;;;;;22.70;6.25;;;21.80;77.70;;;;;;5024160;28;20332;-82
2021/07/16 20:04:04;;;;;;;21.25;6.60;;;21.70;78.40;;;;;;5032851;28;20408;-82
2021/07/16 20:06:30;;;;;;;23.63;6.60;;;21.60;78.00;;;;;;5015682;28;20055;-82
2021/07/16 20:08:55;;;;;;;13.25;5.97;;;21.60;78.30;;;;;;5022765;28;20119;-82
2021/07/16 20:11:21;;;;;;;21.17;7.22;;;21.60;78.30;;;;;;5031605;28;20032;-81
2021/07/16 20:13:47;;;;;;;16.23;6.22;;;21.50;79.20;;;;;;5031368;28;20048;-83
2021/07/16 20:16:12;;;;;;;17.20;6.30;;;21.40;78.50;;;;;;5049123;28;20036;-81
2021/07/16 20:18:38;;;;;;;20.70;6.45;;;21.40;78.80;;;;;;5018466;28;20021;-82
2021/07/16 20:21:04;;;;;;;21.88;6.40;;;21.30;79.30;;;;;;5044055;28;20045;-81
2021/07/16 20:23:32;;;;;;;23.83;7.13;;;21.30;79.90;;;;;;5021812;28;20485;-81
2021/07/16 20:26:04;;;;;;;14.75;5.35;;;21.30;78.80;;;;;;5042578;28;20496;-81
2021/07/16 20:28:29;;;;;;;16.25;5.68;;;21.20;78.70;;;;;;5030641;28;20422;-81
2021/07/16 20:30:55;;;;;;;18.52;6.82;;;21.20;78.70;;;;;;5030900;28;20018;-82
2021/07/16 20:33:21;;;;;;;13.00;5.15;;;21.20;79.10;;;;;;5056617;28;20090;-81
2021/07/16 20:35:47;;;;;;;23.73;7.38;;;21.10;79.20;;;;;;5018236;28;20028;-82
2021/07/16 20:38:13;;;;;;;16.98;6.18;;;21.10;79.00;;;;;;5039760;28;20032;-81
2021/07/16 20:40:39;;;;;;;18.63;6.45;;;21.10;79.80;;;;;;5044270;28;20032;-82
2021/07/16 20:43:05;;;;;;;21.90;6.63;;;21.10;78.80;;;;;;5027824;28;20043;-82
2021/07/16 20:45:30;;;;;;;17.80;6.55;;;21.00;79.80;;;;;;5017463;28;20043;-82
2021/07/16 20:47:56;;;;;;;12.73;4.60;;;21.00;79.80;;;;;;5048306;28;20056;-82
2021/07/16 20:50:21;;;;;;;11.57;4.70;;;21.00;79.40;;;;;;5017186;28;20028;-84
2021/07/16 20:52:47;;;;;;;15.63;6.15;;;21.00;79.40;;;;;;5033232;28;20032;-82
2021/07/16 20:55:12;;;;;;;22.02;6.45;;;20.90;79.00;;;;;;5030836;28;20507;-82
2021/07/16 20:57:38;;;;;;;16.63;6.25;;;20.80;80.00;;;;;;5051932;28;20030;-82
2021/07/16 21:00:09;;;;;;;18.15;6.38;;;20.80;79.70;;;;;;5026031;28;20078;-82
2021/07/16 21:02:35;;;;;;;21.35;6.90;;;20.80;80.10;;;;;;5038165;28;20048;-82
2021/07/16 21:05:00;;;;;;;15.52;5.78;;;20.70;80.20;;;;;;5059231;28;20079;-82
2021/07/16 21:07:26;;;;;;;15.10;6.03;;;20.70;81.10;;;;;;5049082;28;20036;-82
2021/07/16 21:09:51;;;;;;;10.43;4.60;;;20.70;80.10;;;;;;5014436;28;20399;-82
2021/07/16 21:12:17;;;;;;;17.58;5.97;;;20.60;79.40;;;;;;5030517;28;20479;-82
2021/07/16 21:14:42;;;;;;;14.75;5.45;;;20.70;79.70;;;;;;5016585;28;20033;-81
2021/07/16 21:17:11;;;;;;;17.83;6.20;;;20.60;79.50;;;;;;5031089;28;20397;-82
2021/07/16 21:19:37;;;;;;;18.70;7.10;;;20.60;79.80;;;;;;5052526;28;20044;-81
2021/07/16 21:22:03;;;;;;;23.52;9.68;;;20.60;80.30;;;;;;5026579;28;20079;-81
2021/07/16 21:24:29;;;;;;;21.58;8.93;;;20.60;79.70;;;;;;5014405;28;20032;-81
2021/07/16 21:26:54;;;;;;;21.08;7.65;;;20.40;79.40;;;;;;5029771;28;20489;-81
2021/07/16 21:29:20;;;;;;;14.80;6.40;;;20.40;79.60;;;;;;5013716;28;20032;-81
2021/07/16 21:31:45;;;;;;;24.55;8.10;;;20.40;80.10;;;;;;5036034;28;20033;-81
2021/07/16 21:34:11;;;;;;;20.08;7.32;;;20.40;80.70;;;;;;5030724;28;20375;-81
2021/07/16 21:36:36;;;;;;;22.33;7.80;;;20.40;80.50;;;;;;5046163;28;20028;-82
2021/07/16 21:39:02;;;;;;;23.48;8.82;;;20.40;81.10;;;;;;5054054;28;20026;-81
2021/07/16 21:41:28;;;;;;;26.88;8.10;;;20.30;80.60;;;;;;5037067;28;20040;-82
2021/07/16 21:43:53;;;;;;;20.42;7.13;;;20.40;80.80;;;;;;5034638;28;20039;-82
2021/07/16 21:46:19;;;;;;;23.58;7.45;;;20.30;82.00;;;;;;5049679;28;20029;-81
2021/07/16 21:48:45;;;;;;;24.60;7.90;;;20.20;82.10;;;;;;5018647;28;20472;-82
2021/07/16 21:51:10;;;;;;;24.17;8.32;;;20.20;82.20;;;;;;5035851;28;20021;-82
2021/07/16 21:53:36;;;;;;;16.42;8.13;;;20.20;82.40;;;;;;5052963;28;20017;-81
2021/07/16 21:56:02;;;;;;;23.42;8.70;;;20.10;82.50;;;;;;5027261;28;20025;-82
2021/07/16 21:58:31;;;;;;;21.35;8.25;;;20.10;82.50;;;;;;5039827;28;20052;-82
2021/07/16 22:00:57;;;;;;;24.90;8.60;;;20.10;82.50;;;;;;5037602;28;20029;-81
2021/07/16 22:03:23;;;;;;;24.92;8.88;;;20.00;83.30;;;;;;5019607;28;20040;-82
2021/07/16 22:05:49;;;;;;;20.60;7.55;;;20.00;83.40;;;;;;5034465;28;20123;-82
2021/07/16 22:08:14;;;;;;;19.98;7.28;;;20.00;82.70;;;;;;5017378;28;20119;-82
2021/07/16 22:10:40;;;;;;;17.48;7.72;;;20.00;83.10;;;;;;5059409;28;20063;-82
2021/07/16 22:13:05;;;;;;;19.27;6.82;;;20.00;83.80;;;;;;5055930;28;20144;-82
2021/07/16 22:15:31;;;;;;;28.63;9.02;;;20.00;83.10;;;;;;5019268;28;20075;-82
2021/07/16 22:17:56;;;;;;;25.42;8.93;;;19.90;85.70;;;;;;5043649;28;20484;-81
2021/07/16 22:20:22;;;;;;;28.85;9.07;;;19.90;82.90;;;;;;5017310;28;20037;-81
2021/07/16 22:22:48;;;;;;;24.10;9.07;;;19.90;83.80;;;;;;5032677;28;20139;-81
2021/07/16 22:25:14;;;;;;;21.00;9.30;;;20.00;83.30;;;;;;5041436;28;20025;-81
2021/07/16 22:27:39;;;;;;;20.40;8.10;;;19.90;84.00;;;;;;5021563;28;20076;-81
2021/07/16 22:30:06;;;;;;;28.88;10.38;;;19.90;84.10;;;;;;5054612;28;20025;-82
2021/07/16 22:32:32;;;;;;;30.88;9.63;;;19.80;84.50;;;;;;5040551;28;20032;-82
2021/07/16 22:34:57;;;;;;;25.45;9.63;;;19.80;83.80;;;;;;5011367;28;20036;-82
2021/07/16 22:37:23;;;;;;;20.63;7.60;;;19.80;84.10;;;;;;5014990;28;20050;-81